sensor_id;sensor_type;location;lat;lon;timestamp;P1;durP1;ratioP1;P2;durP2;ratioP2
24485;SDS011;13449;49.374;8.584;2023-03-21T00:01:53;4.20;;;1.90;;
24485;SDS011;13449;49.374;8.584;2023-03-21T00:04:22;4.53;;;2.03;;
24485;SDS011;13449;49.374;8.584;2023-03-21T00:06:50;4.38;;;2.35;;
24485;SDS011;13449;49.374;8.584;2023-03-21T00:09:17;4.18;;;2.08;;
24485;SDS011;13449;49.374;8.584;2023-03-21T00:11:44;3.75;;;1.90;;
24485;SDS011;13449;49.374;8.584;2023-03-21T00:14:13;4.53;;;1.67;;
24485;SDS011;13449;49.374;8.584;2023-03-21T00:16:45;2.20;;;1.52;;
24485;SDS011;13449;49.374;8.584;2023-03-21T00:19:19;5.82;;;2.10;;
24485;SDS011;13449;49.374;8.584;2023-03-21T00:21:50;6.40;;;2.03;;
24485;SDS011;13449;49.374;8.584;2023-03-21T00:24:32;4.38;;;2.58;;
24485;SDS011;13449;49.374;8.584;2023-03-21T00:27:00;4.88;;;2.00;;
24485;SDS011;13449;49.374;8.584;2023-03-21T00:29:47;4.18;;;2.22;;
24485;SDS011;13449;49.374;8.584;2023-03-21T00:32:17;8.80;;;2.58;;
24485;SDS011;13449;49.374;8.584;2023-03-21T00:34:46;6.20;;;2.50;;
24485;SDS011;13449;49.374;8.584;2023-03-21T00:37:34;5.13;;;2.28;;
24485;SDS011;13449;49.374;8.584;2023-03-21T00:40:01;6.20;;;2.55;;
24485;SDS011;13449;49.374;8.584;2023-03-21T00:42:29;4.75;;;2.28;;
24485;SDS011;13449;49.374;8.584;2023-03-21T00:44:55;4.13;;;2.08;;
24485;SDS011;13449;49.374;8.584;2023-03-21T00:47:24;5.35;;;2.05;;
24485;SDS011;13449;49.374;8.584;2023-03-21T00:49:53;3.53;;;2.33;;
24485;SDS011;13449;49.374;8.584;2023-03-21T00:52:22;4.35;;;2.03;;
24485;SDS011;13449;49.374;8.584;2023-03-21T00:55:05;7.72;;;2.78;;
24485;SDS011;13449;49.374;8.584;2023-03-21T00:57:32;4.45;;;1.77;;
24485;SDS011;13449;49.374;8.584;2023-03-21T01:00:05;6.95;;;2.67;;
24485;SDS011;13449;49.374;8.584;2023-03-21T01:02:35;4.15;;;1.83;;
24485;SDS011;13449;49.374;8.584;2023-03-21T01:05:03;2.03;;;1.70;;
24485;SDS011;13449;49.374;8.584;2023-03-21T01:07:30;3.80;;;2.05;;
24485;SDS011;13449;49.374;8.584;2023-03-21T01:09:56;4.28;;;2.05;;
24485;SDS011;13449;49.374;8.584;2023-03-21T01:12:23;4.68;;;2.20;;
24485;SDS011;13449;49.374;8.584;2023-03-21T01:14:49;5.63;;;1.95;;
24485;SDS011;13449;49.374;8.584;2023-03-21T01:17:16;5.88;;;1.95;;
24485;SDS011;13449;49.374;8.584;2023-03-21T01:19:42;6.20;;;1.92;;
24485;SDS011;13449;49.374;8.584;2023-03-21T01:22:17;4.30;;;2.13;;
24485;SDS011;13449;49.374;8.584;2023-03-21T01:24:46;7.07;;;2.90;;
24485;SDS011;13449;49.374;8.584;2023-03-21T01:27:23;3.78;;;1.90;;
24485;SDS011;13449;49.374;8.584;2023-03-21T01:29:50;8.52;;;2.40;;
24485;SDS011;13449;49.374;8.584;2023-03-21T01:32:16;2.65;;;2.03;;
24485;SDS011;13449;49.374;8.584;2023-03-21T01:34:42;3.90;;;1.90;;
24485;SDS011;13449;49.374;8.584;2023-03-21T01:37:09;3.28;;;1.70;;
24485;SDS011;13449;49.374;8.584;2023-03-21T01:39:35;4.28;;;2.35;;
24485;SDS011;13449;49.374;8.584;2023-03-21T01:42:02;4.90;;;1.75;;
24485;SDS011;13449;49.374;8.584;2023-03-21T01:44:31;4.53;;;2.00;;
24485;SDS011;13449;49.374;8.584;2023-03-21T01:47:16;4.50;;;2.38;;
24485;SDS011;13449;49.374;8.584;2023-03-21T01:49:44;6.07;;;2.15;;
24485;SDS011;13449;49.374;8.584;2023-03-21T01:52:16;4.53;;;2.45;;
24485;SDS011;13449;49.374;8.584;2023-03-21T01:55:03;7.50;;;2.13;;
24485;SDS011;13449;49.374;8.584;2023-03-21T01:57:37;2.42;;;1.77;;
24485;SDS011;13449;49.374;8.584;2023-03-21T02:00:27;5.95;;;2.55;;
24485;SDS011;13449;49.374;8.584;2023-03-21T02:02:54;3.65;;;2.05;;
24485;SDS011;13449;49.374;8.584;2023-03-21T02:05:50;4.90;;;2.20;;
24485;SDS011;13449;49.374;8.584;2023-03-21T02:08:21;9.60;;;2.38;;
24485;SDS011;13449;49.374;8.584;2023-03-21T02:11:03;4.22;;;2.53;;
24485;SDS011;13449;49.374;8.584;2023-03-21T02:13:32;6.90;;;2.35;;
24485;SDS011;13449;49.374;8.584;2023-03-21T02:16:13;3.80;;;2.38;;
24485;SDS011;13449;49.374;8.584;2023-03-21T02:21:54;5.63;;;2.00;;
24485;SDS011;13449;49.374;8.584;2023-03-21T02:32:56;4.18;;;2.30;;
24485;SDS011;13449;49.374;8.584;2023-03-21T02:35:52;8.55;;;2.30;;
24485;SDS011;13449;49.374;8.584;2023-03-21T02:38:46;5.63;;;2.63;;
24485;SDS011;13449;49.374;8.584;2023-03-21T02:41:36;4.20;;;2.22;;
24485;SDS011;13449;49.374;8.584;2023-03-21T02:46:49;3.40;;;1.80;;
24485;SDS011;13449;49.374;8.584;2023-03-21T02:49:49;4.80;;;2.30;;
24485;SDS011;13449;49.374;8.584;2023-03-21T02:52:30;3.90;;;2.03;;
24485;SDS011;13449;49.374;8.584;2023-03-21T02:55:06;6.32;;;2.38;;
24485;SDS011;13449;49.374;8.584;2023-03-21T02:57:42;5.30;;;2.20;;
24485;SDS011;13449;49.374;8.584;2023-03-21T03:00:12;5.70;;;2.63;;
24485;SDS011;13449;49.374;8.584;2023-03-21T03:05:13;3.75;;;1.98;;
24485;SDS011;13449;49.374;8.584;2023-03-21T03:13:45;7.18;;;2.38;;
24485;SDS011;13449;49.374;8.584;2023-03-21T03:19:03;6.20;;;2.63;;
24485;SDS011;13449;49.374;8.584;2023-03-21T03:21:39;4.22;;;2.33;;
24485;SDS011;13449;49.374;8.584;2023-03-21T03:26:50;4.45;;;2.53;;
24485;SDS011;13449;49.374;8.584;2023-03-21T03:29:20;6.68;;;2.15;;
24485;SDS011;13449;49.374;8.584;2023-03-21T03:31:53;6.00;;;2.55;;
24485;SDS011;13449;49.374;8.584;2023-03-21T03:34:29;3.83;;;2.33;;
24485;SDS011;13449;49.374;8.584;2023-03-21T03:37:06;4.88;;;3.05;;
24485;SDS011;13449;49.374;8.584;2023-03-21T03:39:37;7.15;;;2.38;;
24485;SDS011;13449;49.374;8.584;2023-03-21T03:42:06;6.80;;;2.20;;
24485;SDS011;13449;49.374;8.584;2023-03-21T03:44:53;10.68;;;2.67;;
24485;SDS011;13449;49.374;8.584;2023-03-21T03:47:23;6.93;;;2.40;;
24485;SDS011;13449;49.374;8.584;2023-03-21T03:50:11;12.35;;;3.05;;
24485;SDS011;13449;49.374;8.584;2023-03-21T03:52:47;9.23;;;2.60;;
24485;SDS011;13449;49.374;8.584;2023-03-21T03:55:25;4.20;;;2.35;;
24485;SDS011;13449;49.374;8.584;2023-03-21T03:57:55;10.52;;;2.80;;
24485;SDS011;13449;49.374;8.584;2023-03-21T04:00:21;9.13;;;2.20;;
24485;SDS011;13449;49.374;8.584;2023-03-21T04:02:48;3.88;;;2.13;;
24485;SDS011;13449;49.374;8.584;2023-03-21T04:05:14;5.68;;;2.63;;
24485;SDS011;13449;49.374;8.584;2023-03-21T04:07:48;5.57;;;2.77;;
24485;SDS011;13449;49.374;8.584;2023-03-21T04:10:18;5.75;;;2.83;;
24485;SDS011;13449;49.374;8.584;2023-03-21T04:12:45;4.35;;;2.30;;
24485;SDS011;13449;49.374;8.584;2023-03-21T04:15:12;5.10;;;2.67;;
24485;SDS011;13449;49.374;8.584;2023-03-21T04:17:40;8.57;;;3.67;;
24485;SDS011;13449;49.374;8.584;2023-03-21T04:20:19;5.95;;;2.95;;
24485;SDS011;13449;49.374;8.584;2023-03-21T04:23:02;5.90;;;4.07;;
24485;SDS011;13449;49.374;8.584;2023-03-21T04:25:32;13.40;;;6.38;;
24485;SDS011;13449;49.374;8.584;2023-03-21T04:28:00;7.38;;;4.00;;
24485;SDS011;13449;49.374;8.584;2023-03-21T04:30:27;6.53;;;2.92;;
24485;SDS011;13449;49.374;8.584;2023-03-21T04:32:54;6.70;;;3.75;;
24485;SDS011;13449;49.374;8.584;2023-03-21T04:35:22;8.65;;;3.60;;
24485;SDS011;13449;49.374;8.584;2023-03-21T04:37:51;8.10;;;2.85;;
24485;SDS011;13449;49.374;8.584;2023-03-21T04:40:18;3.13;;;2.45;;
24485;SDS011;13449;49.374;8.584;2023-03-21T04:42:47;19.45;;;4.28;;
24485;SDS011;13449;49.374;8.584;2023-03-21T04:45:16;6.82;;;3.97;;
24485;SDS011;13449;49.374;8.584;2023-03-21T04:47:42;12.35;;;5.00;;
24485;SDS011;13449;49.374;8.584;2023-03-21T04:50:10;11.02;;;4.15;;
24485;SDS011;13449;49.374;8.584;2023-03-21T04:52:38;4.95;;;2.63;;
24485;SDS011;13449;49.374;8.584;2023-03-21T04:55:05;7.78;;;3.50;;
24485;SDS011;13449;49.374;8.584;2023-03-21T04:57:36;13.52;;;3.00;;
24485;SDS011;13449;49.374;8.584;2023-03-21T05:00:05;7.38;;;2.58;;
24485;SDS011;13449;49.374;8.584;2023-03-21T05:02:36;5.90;;;3.50;;
24485;SDS011;13449;49.374;8.584;2023-03-21T05:05:06;8.70;;;3.00;;
24485;SDS011;13449;49.374;8.584;2023-03-21T05:07:37;5.85;;;2.95;;
24485;SDS011;13449;49.374;8.584;2023-03-21T05:10:05;4.22;;;2.90;;
24485;SDS011;13449;49.374;8.584;2023-03-21T05:12:38;13.93;;;3.35;;
24485;SDS011;13449;49.374;8.584;2023-03-21T05:15:07;7.63;;;3.22;;
24485;SDS011;13449;49.374;8.584;2023-03-21T05:17:34;4.07;;;2.78;;
24485;SDS011;13449;49.374;8.584;2023-03-21T05:20:00;4.80;;;2.50;;
24485;SDS011;13449;49.374;8.584;2023-03-21T05:22:27;4.93;;;3.03;;
24485;SDS011;13449;49.374;8.584;2023-03-21T05:24:54;4.68;;;3.00;;
24485;SDS011;13449;49.374;8.584;2023-03-21T05:27:21;5.85;;;3.40;;
24485;SDS011;13449;49.374;8.584;2023-03-21T05:32:30;3.63;;;2.60;;
24485;SDS011;13449;49.374;8.584;2023-03-21T05:34:57;4.95;;;2.80;;
24485;SDS011;13449;49.374;8.584;2023-03-21T05:37:26;6.40;;;3.63;;
24485;SDS011;13449;49.374;8.584;2023-03-21T05:39:53;5.22;;;2.47;;
24485;SDS011;13449;49.374;8.584;2023-03-21T05:42:19;5.93;;;2.85;;
24485;SDS011;13449;49.374;8.584;2023-03-21T05:44:49;6.20;;;3.47;;
24485;SDS011;13449;49.374;8.584;2023-03-21T05:47:16;4.70;;;2.72;;
24485;SDS011;13449;49.374;8.584;2023-03-21T05:49:43;5.38;;;3.10;;
24485;SDS011;13449;49.374;8.584;2023-03-21T05:52:10;4.65;;;2.58;;
24485;SDS011;13449;49.374;8.584;2023-03-21T05:54:36;7.53;;;3.70;;
24485;SDS011;13449;49.374;8.584;2023-03-21T05:57:05;11.90;;;4.00;;
24485;SDS011;13449;49.374;8.584;2023-03-21T05:59:34;7.53;;;3.78;;
24485;SDS011;13449;49.374;8.584;2023-03-21T06:02:01;5.65;;;3.60;;
24485;SDS011;13449;49.374;8.584;2023-03-21T06:04:28;4.43;;;2.95;;
24485;SDS011;13449;49.374;8.584;2023-03-21T06:06:55;9.00;;;3.95;;
24485;SDS011;13449;49.374;8.584;2023-03-21T06:09:22;6.95;;;2.67;;
24485;SDS011;13449;49.374;8.584;2023-03-21T06:11:50;7.30;;;3.60;;
24485;SDS011;13449;49.374;8.584;2023-03-21T06:14:18;6.35;;;4.10;;
24485;SDS011;13449;49.374;8.584;2023-03-21T06:16:45;9.07;;;3.60;;
24485;SDS011;13449;49.374;8.584;2023-03-21T06:19:11;7.07;;;4.50;;
24485;SDS011;13449;49.374;8.584;2023-03-21T06:21:38;14.20;;;5.40;;
24485;SDS011;13449;49.374;8.584;2023-03-21T06:24:04;11.35;;;5.18;;
24485;SDS011;13449;49.374;8.584;2023-03-21T06:26:31;8.93;;;4.57;;
24485;SDS011;13449;49.374;8.584;2023-03-21T06:29:00;10.88;;;5.38;;
24485;SDS011;13449;49.374;8.584;2023-03-21T06:31:27;10.73;;;5.05;;
24485;SDS011;13449;49.374;8.584;2023-03-21T06:33:56;11.55;;;5.18;;
24485;SDS011;13449;49.374;8.584;2023-03-21T06:36:22;11.98;;;5.97;;
24485;SDS011;13449;49.374;8.584;2023-03-21T06:38:49;9.52;;;6.22;;
24485;SDS011;13449;49.374;8.584;2023-03-21T06:41:16;9.75;;;5.18;;
24485;SDS011;13449;49.374;8.584;2023-03-21T06:43:43;8.30;;;5.20;;
24485;SDS011;13449;49.374;8.584;2023-03-21T06:46:13;11.82;;;5.15;;
24485;SDS011;13449;49.374;8.584;2023-03-21T06:48:39;8.35;;;4.50;;
24485;SDS011;13449;49.374;8.584;2023-03-21T06:51:12;9.95;;;4.28;;
24485;SDS011;13449;49.374;8.584;2023-03-21T06:53:40;11.05;;;4.57;;
24485;SDS011;13449;49.374;8.584;2023-03-21T06:56:10;8.82;;;4.30;;
24485;SDS011;13449;49.374;8.584;2023-03-21T06:58:38;10.32;;;4.75;;
24485;SDS011;13449;49.374;8.584;2023-03-21T07:01:05;8.23;;;4.68;;
24485;SDS011;13449;49.374;8.584;2023-03-21T07:03:33;7.78;;;4.40;;
24485;SDS011;13449;49.374;8.584;2023-03-21T07:06:03;11.35;;;4.95;;
24485;SDS011;13449;49.374;8.584;2023-03-21T07:08:32;8.73;;;4.63;;
24485;SDS011;13449;49.374;8.584;2023-03-21T07:11:00;9.15;;;5.07;;
24485;SDS011;13449;49.374;8.584;2023-03-21T07:13:27;8.80;;;4.63;;
24485;SDS011;13449;49.374;8.584;2023-03-21T07:15:53;8.43;;;5.20;;
24485;SDS011;13449;49.374;8.584;2023-03-21T07:18:20;8.45;;;4.88;;
24485;SDS011;13449;49.374;8.584;2023-03-21T07:20:47;9.18;;;5.03;;
24485;SDS011;13449;49.374;8.584;2023-03-21T07:23:18;11.75;;;5.43;;
24485;SDS011;13449;49.374;8.584;2023-03-21T07:25:47;8.48;;;4.70;;
24485;SDS011;13449;49.374;8.584;2023-03-21T07:28:16;14.07;;;5.75;;
24485;SDS011;13449;49.374;8.584;2023-03-21T07:30:50;11.05;;;5.40;;
24485;SDS011;13449;49.374;8.584;2023-03-21T07:33:21;8.77;;;4.72;;
24485;SDS011;13449;49.374;8.584;2023-03-21T07:35:52;8.30;;;4.80;;
24485;SDS011;13449;49.374;8.584;2023-03-21T07:38:23;9.02;;;4.60;;
24485;SDS011;13449;49.374;8.584;2023-03-21T07:40:50;11.48;;;5.35;;
24485;SDS011;13449;49.374;8.584;2023-03-21T07:43:19;19.80;;;5.53;;
24485;SDS011;13449;49.374;8.584;2023-03-21T07:45:46;9.73;;;5.07;;
24485;SDS011;13449;49.374;8.584;2023-03-21T07:48:12;7.85;;;5.03;;
24485;SDS011;13449;49.374;8.584;2023-03-21T07:50:40;7.50;;;4.50;;
24485;SDS011;13449;49.374;8.584;2023-03-21T07:53:06;14.77;;;4.47;;
24485;SDS011;13449;49.374;8.584;2023-03-21T07:55:33;7.72;;;4.53;;
24485;SDS011;13449;49.374;8.584;2023-03-21T07:58:01;7.25;;;4.00;;
24485;SDS011;13449;49.374;8.584;2023-03-21T08:00:28;8.88;;;4.53;;
24485;SDS011;13449;49.374;8.584;2023-03-21T08:02:55;15.57;;;4.28;;
24485;SDS011;13449;49.374;8.584;2023-03-21T08:05:28;13.05;;;4.65;;
24485;SDS011;13449;49.374;8.584;2023-03-21T08:08:02;13.48;;;4.15;;
24485;SDS011;13449;49.374;8.584;2023-03-21T08:10:29;12.52;;;5.03;;
24485;SDS011;13449;49.374;8.584;2023-03-21T08:12:56;13.48;;;4.78;;
24485;SDS011;13449;49.374;8.584;2023-03-21T08:15:22;8.55;;;3.80;;
24485;SDS011;13449;49.374;8.584;2023-03-21T08:17:49;10.27;;;4.47;;
24485;SDS011;13449;49.374;8.584;2023-03-21T08:20:20;11.50;;;4.65;;
24485;SDS011;13449;49.374;8.584;2023-03-21T08:22:48;9.50;;;4.78;;
24485;SDS011;13449;49.374;8.584;2023-03-21T08:25:16;5.32;;;3.97;;
24485;SDS011;13449;49.374;8.584;2023-03-21T08:27:44;5.15;;;3.60;;
24485;SDS011;13449;49.374;8.584;2023-03-21T08:30:13;13.05;;;4.30;;
24485;SDS011;13449;49.374;8.584;2023-03-21T08:32:40;8.77;;;3.47;;
24485;SDS011;13449;49.374;8.584;2023-03-21T08:35:08;6.80;;;3.67;;
24485;SDS011;13449;49.374;8.584;2023-03-21T08:37:37;14.90;;;4.45;;
24485;SDS011;13449;49.374;8.584;2023-03-21T08:40:04;6.30;;;3.90;;
24485;SDS011;13449;49.374;8.584;2023-03-21T08:42:34;10.65;;;3.30;;
24485;SDS011;13449;49.374;8.584;2023-03-21T08:45:00;7.97;;;3.58;;
24485;SDS011;13449;49.374;8.584;2023-03-21T08:47:27;6.38;;;3.20;;
24485;SDS011;13449;49.374;8.584;2023-03-21T08:49:53;5.90;;;3.47;;
24485;SDS011;13449;49.374;8.584;2023-03-21T08:52:24;7.88;;;3.60;;
24485;SDS011;13449;49.374;8.584;2023-03-21T08:54:52;3.58;;;3.20;;
24485;SDS011;13449;49.374;8.584;2023-03-21T08:57:24;5.80;;;2.85;;
24485;SDS011;13449;49.374;8.584;2023-03-21T08:59:53;6.15;;;3.45;;
24485;SDS011;13449;49.374;8.584;2023-03-21T09:02:19;6.72;;;2.60;;
24485;SDS011;13449;49.374;8.584;2023-03-21T09:04:46;7.05;;;3.85;;
24485;SDS011;13449;49.374;8.584;2023-03-21T09:07:13;3.75;;;3.05;;
24485;SDS011;13449;49.374;8.584;2023-03-21T09:09:42;4.15;;;2.97;;
24485;SDS011;13449;49.374;8.584;2023-03-21T09:12:09;5.45;;;3.55;;
24485;SDS011;13449;49.374;8.584;2023-03-21T09:14:39;5.75;;;3.20;;
24485;SDS011;13449;49.374;8.584;2023-03-21T09:17:06;5.32;;;3.58;;
24485;SDS011;13449;49.374;8.584;2023-03-21T09:19:33;3.55;;;2.78;;
24485;SDS011;13449;49.374;8.584;2023-03-21T09:22:00;7.22;;;2.72;;
24485;SDS011;13449;49.374;8.584;2023-03-21T09:24:30;5.30;;;2.17;;
24485;SDS011;13449;49.374;8.584;2023-03-21T09:26:56;3.83;;;2.83;;
24485;SDS011;13449;49.374;8.584;2023-03-21T09:29:23;5.25;;;2.58;;
24485;SDS011;13449;49.374;8.584;2023-03-21T09:31:52;5.63;;;2.92;;
24485;SDS011;13449;49.374;8.584;2023-03-21T09:34:19;6.82;;;3.40;;
24485;SDS011;13449;49.374;8.584;2023-03-21T09:36:46;3.50;;;2.75;;
24485;SDS011;13449;49.374;8.584;2023-03-21T09:39:13;4.05;;;2.90;;
24485;SDS011;13449;49.374;8.584;2023-03-21T09:41:44;4.43;;;3.28;;
24485;SDS011;13449;49.374;8.584;2023-03-21T09:47:23;9.57;;;4.82;;
24485;SDS011;13449;49.374;8.584;2023-03-21T09:49:55;7.30;;;3.78;;
24485;SDS011;13449;49.374;8.584;2023-03-21T09:55:14;4.97;;;3.17;;
24485;SDS011;13449;49.374;8.584;2023-03-21T09:57:44;10.05;;;3.13;;
24485;SDS011;13449;49.374;8.584;2023-03-21T10:00:20;8.15;;;3.03;;
24485;SDS011;13449;49.374;8.584;2023-03-21T10:02:51;3.42;;;2.58;;
24485;SDS011;13449;49.374;8.584;2023-03-21T10:05:23;3.35;;;2.58;;
24485;SDS011;13449;49.374;8.584;2023-03-21T10:08:00;2.88;;;2.03;;
24485;SDS011;13449;49.374;8.584;2023-03-21T10:10:36;9.18;;;2.70;;
24485;SDS011;13449;49.374;8.584;2023-03-21T10:13:13;4.03;;;2.53;;
24485;SDS011;13449;49.374;8.584;2023-03-21T10:15:43;4.72;;;2.25;;
24485;SDS011;13449;49.374;8.584;2023-03-21T10:18:12;1.98;;;1.73;;
24485;SDS011;13449;49.374;8.584;2023-03-21T10:20:45;2.45;;;1.73;;
24485;SDS011;13449;49.374;8.584;2023-03-21T10:23:13;2.63;;;1.75;;
24485;SDS011;13449;49.374;8.584;2023-03-21T10:25:43;3.50;;;1.63;;
24485;SDS011;13449;49.374;8.584;2023-03-21T10:28:17;3.22;;;2.13;;
24485;SDS011;13449;49.374;8.584;2023-03-21T10:30:51;2.90;;;1.77;;
24485;SDS011;13449;49.374;8.584;2023-03-21T10:33:22;9.68;;;1.70;;
24485;SDS011;13449;49.374;8.584;2023-03-21T10:35:58;2.03;;;1.63;;
24485;SDS011;13449;49.374;8.584;2023-03-21T10:38:28;4.07;;;2.17;;
24485;SDS011;13449;49.374;8.584;2023-03-21T10:40:55;1.60;;;1.50;;
24485;SDS011;13449;49.374;8.584;2023-03-21T10:46:06;1.65;;;1.55;;
24485;SDS011;13449;49.374;8.584;2023-03-21T10:48:37;2.42;;;1.92;;
24485;SDS011;13449;49.374;8.584;2023-03-21T10:51:07;5.25;;;1.73;;
24485;SDS011;13449;49.374;8.584;2023-03-21T10:53:37;6.32;;;1.63;;
24485;SDS011;13449;49.374;8.584;2023-03-21T10:56:07;3.85;;;1.98;;
24485;SDS011;13449;49.374;8.584;2023-03-21T10:58:40;4.50;;;2.28;;
24485;SDS011;13449;49.374;8.584;2023-03-21T11:01:18;3.80;;;2.17;;
24485;SDS011;13449;49.374;8.584;2023-03-21T11:03:57;8.40;;;2.75;;
24485;SDS011;13449;49.374;8.584;2023-03-21T11:06:30;4.93;;;2.63;;
24485;SDS011;13449;49.374;8.584;2023-03-21T11:11:53;5.95;;;2.55;;
24485;SDS011;13449;49.374;8.584;2023-03-21T11:14:42;4.80;;;2.58;;
24485;SDS011;13449;49.374;8.584;2023-03-21T11:19:47;7.32;;;2.78;;
24485;SDS011;13449;49.374;8.584;2023-03-21T11:22:28;4.18;;;1.70;;
24485;SDS011;13449;49.374;8.584;2023-03-21T11:25:03;2.55;;;1.70;;
24485;SDS011;13449;49.374;8.584;2023-03-21T11:27:33;4.28;;;2.03;;
24485;SDS011;13449;49.374;8.584;2023-03-21T11:30:02;10.38;;;3.58;;
24485;SDS011;13449;49.374;8.584;2023-03-21T11:32:34;6.13;;;2.22;;
24485;SDS011;13449;49.374;8.584;2023-03-21T11:37:38;3.92;;;2.08;;
24485;SDS011;13449;49.374;8.584;2023-03-21T11:42:40;3.15;;;2.00;;
24485;SDS011;13449;49.374;8.584;2023-03-21T11:45:14;2.97;;;1.85;;
24485;SDS011;13449;49.374;8.584;2023-03-21T11:47:44;3.08;;;1.73;;
24485;SDS011;13449;49.374;8.584;2023-03-21T11:52:40;2.67;;;1.95;;
24485;SDS011;13449;49.374;8.584;2023-03-21T11:58:00;3.42;;;1.58;;
24485;SDS011;13449;49.374;8.584;2023-03-21T12:00:59;4.63;;;1.73;;
24485;SDS011;13449;49.374;8.584;2023-03-21T12:06:31;2.08;;;1.88;;
24485;SDS011;13449;49.374;8.584;2023-03-21T12:12:16;2.53;;;1.77;;
24485;SDS011;13449;49.374;8.584;2023-03-21T12:15:05;4.32;;;1.40;;
24485;SDS011;13449;49.374;8.584;2023-03-21T12:17:42;5.72;;;3.10;;
24485;SDS011;13449;49.374;8.584;2023-03-21T12:20:21;3.45;;;1.88;;
24485;SDS011;13449;49.374;8.584;2023-03-21T12:25:24;9.18;;;3.10;;
24485;SDS011;13449;49.374;8.584;2023-03-21T12:27:58;3.00;;;1.60;;
24485;SDS011;13449;49.374;8.584;2023-03-21T12:38:42;2.08;;;1.60;;
24485;SDS011;13449;49.374;8.584;2023-03-21T12:51:50;2.67;;;1.67;;
24485;SDS011;13449;49.374;8.584;2023-03-21T12:56:56;3.58;;;1.77;;
24485;SDS011;13449;49.374;8.584;2023-03-21T13:02:30;5.78;;;2.30;;
24485;SDS011;13449;49.374;8.584;2023-03-21T13:05:02;6.43;;;3.38;;
24485;SDS011;13449;49.374;8.584;2023-03-21T13:07:35;5.18;;;2.88;;
24485;SDS011;13449;49.374;8.584;2023-03-21T13:10:11;4.40;;;1.85;;
24485;SDS011;13449;49.374;8.584;2023-03-21T13:15:27;8.60;;;2.08;;
24485;SDS011;13449;49.374;8.584;2023-03-21T13:21:03;2.90;;;1.50;;
24485;SDS011;13449;49.374;8.584;2023-03-21T13:23:37;4.85;;;1.85;;
24485;SDS011;13449;49.374;8.584;2023-03-21T13:26:09;2.35;;;1.20;;
24485;SDS011;13449;49.374;8.584;2023-03-21T13:28:40;2.20;;;1.70;;
24485;SDS011;13449;49.374;8.584;2023-03-21T13:31:14;6.68;;;1.70;;
24485;SDS011;13449;49.374;8.584;2023-03-21T13:33:48;3.30;;;1.40;;
24485;SDS011;13449;49.374;8.584;2023-03-21T13:36:23;1.63;;;1.52;;
24485;SDS011;13449;49.374;8.584;2023-03-21T13:38:57;1.73;;;0.98;;
24485;SDS011;13449;49.374;8.584;2023-03-21T13:56:53;8.07;;;1.40;;
24485;SDS011;13449;49.374;8.584;2023-03-21T14:04:42;2.00;;;1.50;;
24485;SDS011;13449;49.374;8.584;2023-03-21T14:07:31;2.22;;;1.60;;
24485;SDS011;13449;49.374;8.584;2023-03-21T14:10:03;4.45;;;1.63;;
24485;SDS011;13449;49.374;8.584;2023-03-21T14:12:36;1.55;;;1.45;;
24485;SDS011;13449;49.374;8.584;2023-03-21T14:15:06;3.00;;;1.38;;
24485;SDS011;13449;49.374;8.584;2023-03-21T14:17:50;3.67;;;1.42;;
24485;SDS011;13449;49.374;8.584;2023-03-21T14:20:25;2.03;;;1.27;;
24485;SDS011;13449;49.374;8.584;2023-03-21T14:22:53;2.75;;;1.35;;
24485;SDS011;13449;49.374;8.584;2023-03-21T14:25:21;1.48;;;1.10;;
24485;SDS011;13449;49.374;8.584;2023-03-21T14:27:54;2.97;;;1.30;;
24485;SDS011;13449;49.374;8.584;2023-03-21T14:30:25;1.73;;;1.20;;
24485;SDS011;13449;49.374;8.584;2023-03-21T14:32:58;2.25;;;1.25;;
24485;SDS011;13449;49.374;8.584;2023-03-21T14:35:28;1.30;;;1.02;;
24485;SDS011;13449;49.374;8.584;2023-03-21T14:37:59;1.65;;;1.00;;
24485;SDS011;13449;49.374;8.584;2023-03-21T14:40:28;1.17;;;1.08;;
24485;SDS011;13449;49.374;8.584;2023-03-21T14:42:55;2.03;;;1.42;;
24485;SDS011;13449;49.374;8.584;2023-03-21T14:45:25;1.77;;;1.65;;
24485;SDS011;13449;49.374;8.584;2023-03-21T14:50:36;1.88;;;1.10;;
24485;SDS011;13449;49.374;8.584;2023-03-21T14:53:27;2.25;;;1.40;;
24485;SDS011;13449;49.374;8.584;2023-03-21T14:56:08;1.83;;;1.58;;
24485;SDS011;13449;49.374;8.584;2023-03-21T14:58:43;2.42;;;2.15;;
24485;SDS011;13449;49.374;8.584;2023-03-21T15:01:12;2.72;;;1.58;;
24485;SDS011;13449;49.374;8.584;2023-03-21T15:03:43;2.67;;;2.08;;
24485;SDS011;13449;49.374;8.584;2023-03-21T15:06:12;2.88;;;1.85;;
24485;SDS011;13449;49.374;8.584;2023-03-21T15:08:39;4.40;;;2.45;;
24485;SDS011;13449;49.374;8.584;2023-03-21T15:11:19;5.57;;;2.90;;
24485;SDS011;13449;49.374;8.584;2023-03-21T15:13:58;5.90;;;3.15;;
24485;SDS011;13449;49.374;8.584;2023-03-21T15:16:28;7.25;;;2.95;;
24485;SDS011;13449;49.374;8.584;2023-03-21T15:18:56;5.10;;;2.97;;
24485;SDS011;13449;49.374;8.584;2023-03-21T15:21:25;2.90;;;2.47;;
24485;SDS011;13449;49.374;8.584;2023-03-21T15:24:04;3.22;;;1.80;;
24485;SDS011;13449;49.374;8.584;2023-03-21T15:26:43;4.97;;;2.50;;
24485;SDS011;13449;49.374;8.584;2023-03-21T15:29:12;5.28;;;2.47;;
24485;SDS011;13449;49.374;8.584;2023-03-21T15:31:40;4.63;;;2.10;;
24485;SDS011;13449;49.374;8.584;2023-03-21T15:34:16;3.38;;;1.40;;
24485;SDS011;13449;49.374;8.584;2023-03-21T15:36:49;3.28;;;2.35;;
24485;SDS011;13449;49.374;8.584;2023-03-21T15:39:21;2.90;;;2.00;;
24485;SDS011;13449;49.374;8.584;2023-03-21T15:44:57;5.35;;;1.63;;
24485;SDS011;13449;49.374;8.584;2023-03-21T15:50:15;12.70;;;5.50;;
24485;SDS011;13449;49.374;8.584;2023-03-21T15:52:50;11.77;;;5.15;;
24485;SDS011;13449;49.374;8.584;2023-03-21T15:55:20;9.43;;;5.30;;
24485;SDS011;13449;49.374;8.584;2023-03-21T15:57:52;5.35;;;3.17;;
24485;SDS011;13449;49.374;8.584;2023-03-21T16:03:15;2.65;;;1.95;;
24485;SDS011;13449;49.374;8.584;2023-03-21T16:08:44;2.58;;;1.60;;
24485;SDS011;13449;49.374;8.584;2023-03-21T16:13:54;4.53;;;1.85;;
24485;SDS011;13449;49.374;8.584;2023-03-21T16:16:23;4.28;;;1.95;;
24485;SDS011;13449;49.374;8.584;2023-03-21T16:18:51;2.08;;;1.75;;
24485;SDS011;13449;49.374;8.584;2023-03-21T16:21:20;6.45;;;2.40;;
24485;SDS011;13449;49.374;8.584;2023-03-21T16:23:49;5.53;;;1.75;;
24485;SDS011;13449;49.374;8.584;2023-03-21T16:26:17;3.75;;;2.00;;
24485;SDS011;13449;49.374;8.584;2023-03-21T16:28:48;6.47;;;3.10;;
24485;SDS011;13449;49.374;8.584;2023-03-21T16:31:17;6.18;;;2.72;;
24485;SDS011;13449;49.374;8.584;2023-03-21T16:33:47;4.00;;;2.08;;
24485;SDS011;13449;49.374;8.584;2023-03-21T16:36:15;4.35;;;2.53;;
24485;SDS011;13449;49.374;8.584;2023-03-21T16:38:45;4.00;;;1.88;;
24485;SDS011;13449;49.374;8.584;2023-03-21T16:41:15;1.45;;;1.33;;
24485;SDS011;13449;49.374;8.584;2023-03-21T16:43:42;1.88;;;1.63;;
24485;SDS011;13449;49.374;8.584;2023-03-21T16:46:10;3.80;;;2.58;;
24485;SDS011;13449;49.374;8.584;2023-03-21T16:48:39;37.80;;;18.40;;
24485;SDS011;13449;49.374;8.584;2023-03-21T16:51:06;12.00;;;7.03;;
24485;SDS011;13449;49.374;8.584;2023-03-21T16:53:35;7.22;;;5.22;;
24485;SDS011;13449;49.374;8.584;2023-03-21T16:56:01;10.13;;;6.05;;
24485;SDS011;13449;49.374;8.584;2023-03-21T16:58:30;8.75;;;3.65;;
24485;SDS011;13449;49.374;8.584;2023-03-21T17:00:56;4.75;;;3.08;;
24485;SDS011;13449;49.374;8.584;2023-03-21T17:03:23;4.75;;;3.33;;
24485;SDS011;13449;49.374;8.584;2023-03-21T17:05:49;11.13;;;4.45;;
24485;SDS011;13449;49.374;8.584;2023-03-21T17:08:17;7.07;;;3.92;;
24485;SDS011;13449;49.374;8.584;2023-03-21T17:10:44;5.50;;;3.20;;
24485;SDS011;13449;49.374;8.584;2023-03-21T17:13:11;5.43;;;2.80;;
24485;SDS011;13449;49.374;8.584;2023-03-21T17:15:38;7.22;;;3.30;;
24485;SDS011;13449;49.374;8.584;2023-03-21T17:18:08;7.75;;;3.40;;
24485;SDS011;13449;49.374;8.584;2023-03-21T17:20:39;12.23;;;7.40;;